Terminal Aerodrome Forecast
Issued by NWS Cleveland, OH

Home | Current Version | Previous Version | Text Only | Print | Product List | Glossary On
Versions: 1 2 3 4 5 6 7 8 9 10 11 12 13 14 15 16 17 18 19
076
FTUS41 KCLE 061404 AAA
TAFCAK
TAF AMD
KCAK 061404Z 0614/0712 25006KT 5SM HZ SCT009 BKN250
      TEMPO 0614/0616 BKN009
     FM061600 24007KT P6SM SCT060 BKN250=

USA.gov is the U.S. government's official web portal to all federal, state and local government web resources and services.